Time;durP1;ratioP1;P1;durP2;ratioP2;P2;SDS_P1;SDS_P2;PMS_P1;PMS_P2;Temp;Humidity;BMP_temperature;BMP_pressure;BME280_temperature;BME280_humidity;BME280_pressure;Samples;Min_cycle;Max_cycle;Signal;HPM_P1;HPM_P2
2023/08/22 00:00:33;;;;;;;8.90;7.20;;;;;;;27.94;39.88;100754.80;103549;1297;69163;-85
2023/08/22 00:02:58;;;;;;;8.10;7.10;;;;;;;27.94;39.97;100755.05;103729;1293;69278;-85
2023/08/22 00:05:24;;;;;;;8.70;7.80;;;;;;;27.94;40.18;100757.48;103630;1295;67154;-85
2023/08/22 00:07:54;;;;;;;8.50;7.70;;;;;;;27.93;40.12;100761.09;103586;1291;70512;-91
2023/08/22 00:10:19;;;;;;;8.50;7.60;;;;;;;27.92;40.12;100763.59;103569;1298;69150;-85
2023/08/22 00:12:45;;;;;;;9.50;8.00;;;;;;;27.93;40.25;100760.26;103663;1294;69225;-85
2023/08/22 00:15:12;;;;;;;8.90;7.60;;;;;;;27.93;40.26;100759.95;103672;1299;69283;-85
2023/08/22 00:17:37;;;;;;;8.20;7.40;;;;;;;27.92;40.16;100760.02;103648;1294;69085;-86
2023/08/22 00:20:08;;;;;;;7.80;7.10;;;;;;;27.93;40.25;100762.34;103583;1297;69155;-86
2023/08/22 00:22:35;;;;;;;9.40;7.90;;;;;;;27.92;40.28;100760.09;103503;1291;69198;-85
2023/08/22 00:25:00;;;;;;;11.80;8.40;;;;;;;27.91;40.28;100761.45;103659;1297;69757;-85
2023/08/22 00:27:27;;;;;;;10.50;7.90;;;;;;;27.91;40.21;100761.76;103566;1294;69343;-85
2023/08/22 00:29:52;;;;;;;10.90;8.00;;;;;;;27.91;40.33;100758.15;103712;1295;69152;-85
2023/08/22 00:32:18;;;;;;;9.70;8.00;;;;;;;27.90;40.46;100758.41;103619;1297;69402;-85
2023/08/22 00:34:52;;;;;;;9.20;7.40;;;;;;;27.91;40.34;100753.33;103663;1297;72699;-90
2023/08/22 00:37:18;;;;;;;8.50;7.60;;;;;;;27.90;40.53;100755.67;103568;1297;69205;-85
2023/08/22 00:39:44;;;;;;;9.50;8.20;;;;;;;27.89;40.42;100757.05;103678;1295;69267;-85
2023/08/22 00:42:09;;;;;;;10.10;8.10;;;;;;;27.89;40.62;100757.45;103691;1293;69199;-85
2023/08/22 00:44:35;;;;;;;8.70;7.80;;;;;;;27.89;40.61;100760.71;103921;1293;69155;-85
2023/08/22 00:47:00;;;;;;;9.20;8.10;;;;;;;27.89;40.59;100757.83;104036;1292;69275;-87
2023/08/22 00:49:26;;;;;;;8.70;7.80;;;;;;;27.89;40.55;100757.58;103664;1295;67238;-85
2023/08/22 00:51:51;;;;;;;9.80;8.30;;;;;;;27.88;40.67;100752.81;103857;1292;69244;-85
2023/08/22 00:54:17;;;;;;;9.80;8.80;;;;;;;27.88;40.70;100755.66;103591;1297;69301;-85
2023/08/22 00:56:42;;;;;;;9.10;8.20;;;;;;;27.88;40.77;100752.94;103750;1296;69311;-85
2023/08/22 00:59:08;;;;;;;9.20;8.10;;;;;;;27.88;40.78;100753.40;103747;1298;69264;-87
2023/08/22 01:04:14;;;;;;;9.00;8.10;;;;;;;27.87;40.89;100757.14;103509;1294;73800;-85
2023/08/22 01:06:53;;;;;;;12.70;8.60;;;;;;;27.88;40.97;100752.75;103584;1293;69271;-85
2023/08/22 01:09:27;;;;;;;10.10;8.20;;;;;;;27.87;40.93;100748.41;103454;1300;69055;-85
2023/08/22 01:11:55;;;;;;;9.40;8.50;;;;;;;27.87;40.93;100749.23;103579;1293;69233;-85
2023/08/22 01:14:21;;;;;;;9.00;8.00;;;;;;;27.87;41.01;100747.69;103410;1294;69226;-85
2023/08/22 01:16:47;;;;;;;10.20;8.50;;;;;;;27.87;41.00;100750.08;103583;1295;69205;-86
2023/08/22 01:19:13;;;;;;;9.80;8.80;;;;;;;27.87;41.13;100753.38;103476;1294;69213;-85
2023/08/22 01:21:52;;;;;;;11.50;8.70;;;;;;;27.87;41.04;100754.52;103358;1299;69229;-85
2023/08/22 01:24:17;;;;;;;10.10;8.40;;;;;;;27.87;41.20;100753.23;103588;1296;69385;-85
2023/08/22 01:26:44;;;;;;;9.30;8.50;;;;;;;27.87;41.20;100753.91;103534;1296;69193;-85
2023/08/22 01:29:10;;;;;;;9.50;8.40;;;;;;;27.87;41.20;100753.23;103547;1293;69316;-85
2023/08/22 01:32:26;;;;;;;9.40;8.40;;;;;;;27.86;41.38;100756.26;104424;1296;69209;-91
2023/08/22 01:34:53;;;;;;;8.50;7.70;;;;;;;27.85;41.29;100755.48;102955;1300;69322;-87
2023/08/22 01:37:20;;;;;;;9.90;8.40;;;;;;;27.85;41.36;100755.07;103771;1304;69217;-86
2023/08/22 01:39:45;;;;;;;9.80;8.80;;;;;;;27.85;41.37;100751.92;103197;1294;69111;-85
2023/08/22 01:42:11;;;;;;;9.70;8.40;;;;;;;27.86;41.50;100753.55;103385;1294;69272;-85
2023/08/22 01:44:36;;;;;;;9.70;8.70;;;;;;;27.86;41.46;100755.16;103382;1294;69277;-85
2023/08/22 01:47:02;;;;;;;10.00;8.90;;;;;;;27.87;41.50;100757.32;103440;1294;69369;-85
2023/08/22 01:49:40;;;;;;;12.00;9.20;;;;;;;27.86;41.52;100756.09;103558;1294;69306;-91
2023/08/22 01:52:05;;;;;;;10.30;9.00;;;;;;;27.85;41.55;100754.08;103426;1294;73612;-85
2023/08/22 01:54:31;;;;;;;9.70;8.60;;;;;;;27.86;41.57;100758.00;103527;1293;69227;-85
2023/08/22 01:56:56;;;;;;;10.30;9.10;;;;;;;27.86;41.52;100756.45;103551;1293;69201;-85
2023/08/22 01:59:22;;;;;;;9.60;8.60;;;;;;;27.86;41.58;100755.38;103530;1296;69277;-86
2023/08/22 02:01:47;;;;;;;11.70;8.70;;;;;;;27.86;41.68;100752.27;103610;1294;69194;-85
2023/08/22 02:04:13;;;;;;;10.20;9.20;;;;;;;27.86;41.63;100753.41;103404;1300;69251;-85
2023/08/22 02:06:38;;;;;;;10.40;9.30;;;;;;;27.86;41.63;100753.10;103624;1294;69218;-85
2023/08/22 02:09:05;;;;;;;10.40;8.70;;;;;;;27.86;41.76;100752.23;103554;1297;69267;-85
2023/08/22 02:11:30;;;;;;;11.20;9.60;;;;;;;27.85;41.75;100751.52;103570;1294;69316;-85
2023/08/22 02:13:56;;;;;;;11.00;8.90;;;;;;;27.86;41.59;100753.67;103576;1294;69365;-85
2023/08/22 02:16:30;;;;;;;10.30;8.90;;;;;;;27.86;41.74;100752.38;103572;1294;69293;-91
2023/08/22 02:18:55;;;;;;;10.40;9.40;;;;;;;27.85;41.66;100755.49;103446;1294;69046;-85
2023/08/22 02:21:21;;;;;;;10.20;9.20;;;;;;;27.86;41.66;100756.10;103603;1296;69233;-85
2023/08/22 02:23:46;;;;;;;10.20;9.20;;;;;;;27.85;41.70;100751.05;103534;1294;69283;-85
2023/08/22 02:26:12;;;;;;;10.70;9.60;;;;;;;27.85;41.66;100751.09;103554;1296;69289;-85
2023/08/22 02:28:37;;;;;;;10.20;9.20;;;;;;;27.85;41.76;100750.52;103595;1294;69274;-85
2023/08/22 02:31:02;;;;;;;9.50;8.60;;;;;;;27.85;41.72;100751.77;103508;1297;69241;-85
2023/08/22 02:33:28;;;;;;;11.00;9.10;;;;;;;27.85;41.65;100754.46;103646;1294;69169;-85
2023/08/22 02:35:54;;;;;;;11.70;9.50;;;;;;;27.85;41.73;100757.15;103573;1296;69290;-85
2023/08/22 02:38:20;;;;;;;10.20;9.10;;;;;;;27.85;41.76;100757.57;103591;1294;69216;-85
2023/08/22 02:40:45;;;;;;;10.50;9.40;;;;;;;27.85;41.75;100757.72;103631;1296;70542;-85
2023/08/22 02:45:45;;;;;;;10.30;9.00;;;;;;;27.85;41.76;100757.83;104125;1289;69238;-85
2023/08/22 02:48:10;;;;;;;10.70;9.70;;;;;;;27.84;41.68;100759.04;104014;1292;69205;-85
2023/08/22 02:50:36;;;;;;;10.40;9.30;;;;;;;27.84;41.71;100760.94;104051;1288;69365;-85
2023/08/22 02:53:02;;;;;;;10.30;9.40;;;;;;;27.84;41.81;100757.63;104133;1289;69052;-85
2023/08/22 02:55:28;;;;;;;10.60;9.60;;;;;;;27.84;41.81;100758.05;103930;1289;69250;-86
2023/08/22 02:57:53;;;;;;;10.90;9.80;;;;;;;27.84;41.67;100763.20;104060;1288;69219;-85
2023/08/22 03:00:19;;;;;;;11.40;9.80;;;;;;;27.84;41.66;100764.15;103901;1289;69291;-87
2023/08/22 03:02:45;;;;;;;15.80;9.80;;;;;;;27.84;41.70;100765.59;103863;1289;70119;-85
2023/08/22 03:05:14;;;;;;;10.90;9.80;;;;;;;27.84;41.78;100769.73;104211;1288;69196;-86
2023/08/22 03:07:39;;;;;;;13.70;11.70;;;;;;;27.84;41.77;100769.27;104081;1289;67302;-86
2023/08/22 03:12:47;;;;;;;13.40;11.90;;;;;;;27.81;41.97;100772.85;103839;1291;69117;-86
2023/08/22 03:15:12;;;;;;;13.80;12.20;;;;;;;27.81;42.06;100777.16;103766;1293;70754;-86
2023/08/22 03:17:38;;;;;;;15.80;12.90;;;;;;;27.79;42.12;100780.15;103849;1294;69198;-86
2023/08/22 03:20:05;;;;;;;16.50;12.90;;;;;;;27.77;42.08;100782.63;103817;1294;69267;-85
2023/08/22 03:22:30;;;;;;;16.90;12.20;;;;;;;27.75;42.17;100780.91;103937;1294;69261;-86
2023/08/22 03:24:56;;;;;;;16.10;12.50;;;;;;;27.74;42.37;100784.65;103669;1292;69198;-85
2023/08/22 03:27:21;;;;;;;13.60;11.80;;;;;;;27.73;42.39;100787.86;103798;1291;69252;-85
2023/08/22 03:29:47;;;;;;;18.20;13.00;;;;;;;27.73;42.29;100788.51;103711;1294;69394;-85
2023/08/22 03:32:12;;;;;;;16.60;12.40;;;;;;;27.71;42.53;100791.33;103683;1295;69198;-85
2023/08/22 03:34:38;;;;;;;16.20;12.80;;;;;;;27.70;42.69;100792.90;103656;1295;69268;-85
2023/08/22 03:37:14;;;;;;;15.80;11.90;;;;;;;27.68;42.58;100794.42;103525;1293;69673;-91
2023/08/22 03:39:40;;;;;;;18.60;12.90;;;;;;;27.66;42.79;100799.77;103420;1293;273366;-85
2023/08/22 03:42:05;;;;;;;17.60;12.40;;;;;;;27.65;42.94;100804.20;103686;1294;69258;-85
2023/08/22 03:44:31;;;;;;;16.50;12.50;;;;;;;27.64;43.01;100801.38;103689;1292;70388;-86
2023/08/22 03:47:00;;;;;;;18.20;12.90;;;;;;;27.61;43.18;100802.94;103760;1294;69242;-85
2023/08/22 03:49:26;;;;;;;13.40;11.90;;;;;;;27.60;43.39;100801.72;103712;1294;69702;-85
2023/08/22 03:51:51;;;;;;;14.30;12.80;;;;;;;27.58;43.56;100802.59;103505;1293;69258;-85
2023/08/22 03:54:17;;;;;;;25.00;13.40;;;;;;;27.56;43.66;100804.29;103605;1294;68110;-85
2023/08/22 03:56:42;;;;;;;19.10;13.00;;;;;;;27.54;43.83;100804.75;103648;1294;69279;-85
2023/08/22 03:59:08;;;;;;;15.70;12.80;;;;;;;27.52;43.97;100805.89;103596;1294;69147;-85
2023/08/22 04:01:33;;;;;;;19.00;12.50;;;;;;;27.49;44.25;100809.09;103650;1294;69273;-85
2023/08/22 04:04:07;;;;;;;18.30;12.80;;;;;;;27.47;44.38;100808.83;103543;1294;69284;-91
2023/08/22 04:06:32;;;;;;;13.60;12.20;;;;;;;27.43;44.49;100807.04;103599;1294;69173;-85
2023/08/22 04:08:58;;;;;;;14.00;12.50;;;;;;;27.41;44.54;100811.10;103665;1293;69363;-85
2023/08/22 04:11:23;;;;;;;15.90;13.00;;;;;;;27.39;44.56;100812.24;103721;1294;69321;-85
2023/08/22 04:13:49;;;;;;;15.70;12.20;;;;;;;27.36;44.71;100812.14;103723;1297;69167;-85
2023/08/22 04:16:14;;;;;;;14.70;12.30;;;;;;;27.34;44.75;100813.59;103814;1294;69240;-85
2023/08/22 04:18:40;;;;;;;17.60;12.60;;;;;;;27.31;44.88;100811.17;103645;1297;69206;-85
2023/08/22 04:21:05;;;;;;;17.00;12.60;;;;;;;27.29;44.89;100811.41;103756;1296;69237;-85
2023/08/22 04:23:31;;;;;;;16.50;12.40;;;;;;;27.28;45.09;100810.60;103727;1293;69333;-85
2023/08/22 04:25:56;;;;;;;16.30;12.50;;;;;;;27.26;45.12;100813.48;103787;1293;69342;-85
2023/08/22 04:28:22;;;;;;;16.70;12.60;;;;;;;27.25;45.11;100812.38;103777;1294;69262;-85
2023/08/22 04:33:21;;;;;;;15.70;12.50;;;;;;;27.22;45.25;100817.86;104233;1291;73202;-84
2023/08/22 04:35:46;;;;;;;13.80;12.30;;;;;;;27.21;45.20;100822.89;104280;1289;69250;-84
2023/08/22 04:38:12;;;;;;;16.30;12.30;;;;;;;27.20;45.28;100824.46;103903;1292;69361;-84
2023/08/22 04:40:37;;;;;;;15.10;12.70;;;;;;;27.19;45.37;100828.92;104155;1290;69142;-84
2023/08/22 04:43:03;;;;;;;17.10;11.80;;;;;;;27.18;45.39;100830.52;104133;1290;69848;-85
2023/08/22 04:45:29;;;;;;;15.70;11.80;;;;;;;27.16;45.33;100835.77;104271;1290;69140;-85
2023/08/22 04:47:55;;;;;;;18.10;12.80;;;;;;;27.14;45.47;100837.28;104284;1290;67330;-85
2023/08/22 04:50:20;;;;;;;17.30;12.20;;;;;;;27.12;45.47;100839.80;103993;1291;69259;-85
2023/08/22 04:52:46;;;;;;;21.50;12.70;;;;;;;27.11;45.54;100841.59;104248;1291;69220;-85
2023/08/22 04:55:11;;;;;;;28.50;13.00;;;;;;;27.11;45.59;100840.86;104402;1289;69234;-85
2023/08/22 04:57:37;;;;;;;20.20;12.50;;;;;;;27.11;45.64;100843.76;104537;1290;69234;-85
2023/08/22 05:00:03;;;;;;;16.90;12.50;;;;;;;27.12;45.61;100843.84;105745;1290;66729;-85
2023/08/22 05:02:29;;;;;;;21.00;12.90;;;;;;;27.13;45.70;100845.83;105662;1293;67776;-85
2023/08/22 05:04:55;;;;;;;26.30;15.70;;;;;;;27.15;45.77;100848.54;105062;1292;67806;-85
2023/08/22 05:07:20;;;;;;;26.20;20.40;;;;;;;27.16;45.70;100846.97;104929;1291;69933;-85
2023/08/22 05:09:55;;;;;;;27.50;20.80;;;;;;;27.18;45.59;100847.44;105425;1290;69209;-91
2023/08/22 05:12:21;;;;;;;31.70;22.50;;;;;;;27.19;45.47;100850.38;105398;1294;69126;-85
2023/08/22 05:14:47;;;;;;;32.00;24.10;;;;;;;27.19;45.47;100852.11;103966;1295;69135;-85
2023/08/22 05:17:12;;;;;;;33.30;24.60;;;;;;;27.19;45.51;100852.54;103932;1294;69282;-85
2023/08/22 05:19:39;;;;;;;35.20;23.60;;;;;;;27.20;45.50;100857.54;103993;1294;69335;-85
2023/08/22 05:22:05;;;;;;;24.90;19.00;;;;;;;27.20;45.51;100856.74;104223;1291;69255;-85
2023/08/22 05:24:30;;;;;;;30.70;17.70;;;;;;;27.21;45.46;100857.09;104071;1291;67317;-85
2023/08/22 05:26:56;;;;;;;25.80;16.50;;;;;;;27.22;45.50;100853.61;104161;1290;67537;-85
2023/08/22 05:29:22;;;;;;;25.60;16.60;;;;;;;27.22;45.43;100854.84;103981;1294;69738;-85
2023/08/22 05:31:48;;;;;;;22.00;17.00;;;;;;;27.23;45.41;100858.14;103906;1294;69212;-85
2023/08/22 05:34:14;;;;;;;22.40;15.10;;;;;;;27.23;45.35;100864.75;104072;1294;69250;-85
2023/08/22 05:36:48;;;;;;;21.00;15.40;;;;;;;27.24;45.42;100862.98;103917;1291;69263;-91
2023/08/22 05:39:13;;;;;;;20.70;14.00;;;;;;;27.25;45.55;100860.27;104149;1291;70285;-85
2023/08/22 05:41:39;;;;;;;25.20;14.10;;;;;;;27.25;45.44;100859.89;103845;1294;69324;-85
2023/08/22 05:44:04;;;;;;;19.60;14.30;;;;;;;27.26;45.50;100863.20;104051;1291;69202;-85
2023/08/22 05:46:30;;;;;;;17.90;14.30;;;;;;;27.27;45.51;100863.17;104458;1290;69186;-85
2023/08/22 05:48:56;;;;;;;25.10;16.40;;;;;;;27.26;45.50;100863.38;104900;1289;69282;-85
2023/08/22 05:51:25;;;;;;;20.30;15.10;;;;;;;27.26;45.19;100865.91;104835;1289;69219;-85
2023/08/22 05:53:50;;;;;;;21.50;15.50;;;;;;;27.26;45.22;100864.06;104893;1291;67875;-85
2023/08/22 05:56:16;;;;;;;25.20;17.20;;;;;;;27.27;45.27;100862.71;104523;1289;69156;-85
2023/08/22 05:58:41;;;;;;;21.70;15.50;;;;;;;27.27;45.04;100866.21;104258;1291;67377;-85
2023/08/22 06:01:10;;;;;;;21.80;14.60;;;;;;;27.28;44.99;100867.40;104594;1294;69204;-85
2023/08/22 06:03:51;;;;;;;19.50;14.70;;;;;;;27.29;44.98;100867.52;104717;1290;69212;-90
2023/08/22 06:06:16;;;;;;;22.30;14.10;;;;;;;27.30;45.05;100864.09;104223;1289;69402;-85
2023/08/22 06:08:42;;;;;;;19.20;14.30;;;;;;;27.32;45.04;100864.79;104207;1294;69144;-85
2023/08/22 06:11:07;;;;;;;15.30;13.70;;;;;;;27.34;45.17;100869.23;104015;1294;69394;-85
2023/08/22 06:13:33;;;;;;;21.40;13.30;;;;;;;27.34;45.13;100871.90;104294;1291;69205;-87
2023/08/22 06:15:58;;;;;;;16.90;12.80;;;;;;;27.36;45.28;100867.64;104929;1291;69269;-87
2023/08/22 06:21:00;;;;;;;19.60;13.30;;;;;;;27.39;45.18;100870.11;104439;1288;72810;-87
2023/08/22 06:23:27;;;;;;;19.20;12.70;;;;;;;27.40;45.27;100870.14;104360;1289;69254;-87
2023/08/22 06:25:53;;;;;;;14.90;12.70;;;;;;;27.41;45.27;100867.83;104195;1292;69330;-87
2023/08/22 06:28:18;;;;;;;15.80;12.80;;;;;;;27.43;45.17;100871.05;104390;1288;67623;-86
2023/08/22 06:30:44;;;;;;;17.30;13.20;;;;;;;27.46;44.97;100870.13;104376;1289;69355;-87
2023/08/22 06:33:09;;;;;;;19.40;12.80;;;;;;;27.47;44.96;100872.85;104293;1288;69261;-86
2023/08/22 06:35:35;;;;;;;14.10;12.30;;;;;;;27.50;44.82;100870.84;104150;1289;70342;-86
2023/08/22 06:38:01;;;;;;;15.70;13.10;;;;;;;27.52;44.78;100866.25;104373;1294;69255;-87
2023/08/22 06:40:26;;;;;;;18.80;12.50;;;;;;;27.53;44.66;100869.17;104415;1289;69278;-87
2023/08/22 06:42:52;;;;;;;15.70;13.00;;;;;;;27.55;44.56;100872.91;104520;1289;69445;-89
2023/08/22 06:48:01;;;;;;;17.80;12.30;;;;;;;27.58;44.48;100864.41;103980;1290;69190;-85
2023/08/22 06:50:26;;;;;;;21.00;11.40;;;;;;;27.60;44.35;100863.68;104092;1292;69301;-88
2023/08/22 06:52:52;;;;;;;15.50;12.50;;;;;;;27.62;44.39;100865.26;104304;1290;69259;-88
2023/08/22 06:55:20;;;;;;;15.30;11.90;;;;;;;27.64;44.33;100865.78;104134;1292;69246;-88
2023/08/22 06:57:45;;;;;;;18.40;12.40;;;;;;;27.66;44.31;100868.95;104123;1289;69760;-88
2023/08/22 07:00:14;;;;;;;16.00;12.80;;;;;;;27.68;44.24;100870.45;104127;1290;69263;-87
2023/08/22 07:02:59;;;;;;;19.90;12.80;;;;;;;27.70;44.01;100871.34;104010;1295;69078;-88
2023/08/22 07:05:24;;;;;;;13.80;11.90;;;;;;;27.72;44.22;100870.88;104280;1292;69600;-88
2023/08/22 07:07:50;;;;;;;16.50;11.90;;;;;;;27.74;44.08;100871.55;104268;1291;69212;-86
2023/08/22 07:10:15;;;;;;;19.20;12.40;;;;;;;27.76;44.14;100866.86;104028;1292;69283;-85
2023/08/22 07:12:41;;;;;;;15.80;11.70;;;;;;;27.79;44.04;100868.41;104151;1292;69247;-86
2023/08/22 07:15:07;;;;;;;16.50;11.90;;;;;;;27.81;43.96;100861.84;103826;1294;69280;-85
2023/08/22 07:17:33;;;;;;;19.80;12.10;;;;;;;27.83;44.07;100861.70;104044;1296;69331;-85
2023/08/22 07:19:58;;;;;;;15.30;12.00;;;;;;;27.84;43.89;100859.43;104547;1293;69337;-86
2023/08/22 07:22:24;;;;;;;14.30;10.80;;;;;;;27.86;43.87;100858.83;104454;1292;72892;-86
2023/08/22 07:24:49;;;;;;;13.80;11.10;;;;;;;27.89;43.88;100861.05;104074;1291;69259;-86
2023/08/22 07:27:25;;;;;;;15.70;12.10;;;;;;;27.91;43.80;100862.83;103702;1295;69309;-91
2023/08/22 07:29:51;;;;;;;15.40;10.60;;;;;;;27.93;43.69;100856.85;103950;1292;69592;-85
2023/08/22 07:32:20;;;;;;;14.10;12.20;;;;;;;27.95;43.58;100856.03;104081;1292;69369;-85
2023/08/22 07:34:47;;;;;;;16.30;12.20;;;;;;;27.96;43.54;100851.30;104176;1293;69467;-85
2023/08/22 07:37:13;;;;;;;26.00;19.50;;;;;;;27.97;43.44;100858.97;104153;1295;69092;-85
2023/08/22 07:39:39;;;;;;;28.60;25.60;;;;;;;27.99;43.36;100864.79;104035;1293;69273;-86
2023/08/22 07:44:38;;;;;;;20.60;18.50;;;;;;;27.99;43.13;100856.61;104543;1286;69278;-86
2023/08/22 07:47:07;;;;;;;20.30;17.80;;;;;;;28.01;42.92;100855.80;104429;1289;69288;-85
2023/08/22 07:49:33;;;;;;;22.60;20.30;;;;;;;28.02;43.07;100860.73;104332;1290;74574;-85
2023/08/22 07:51:59;;;;;;;22.90;18.40;;;;;;;28.04;43.03;100860.19;104289;1287;69266;-85
2023/08/22 07:54:24;;;;;;;19.90;17.80;;;;;;;28.05;42.95;100854.73;104283;1289;69646;-86
2023/08/22 07:56:50;;;;;;;19.90;17.90;;;;;;;28.07;42.82;100854.77;104311;1290;67314;-85
2023/08/22 07:59:16;;;;;;;20.00;16.30;;;;;;;28.09;42.81;100852.41;104269;1289;66744;-85
2023/08/22 08:01:42;;;;;;;21.30;16.80;;;;;;;28.10;42.76;100858.14;104502;1288;69122;-85
2023/08/22 08:04:08;;;;;;;21.00;17.80;;;;;;;28.12;42.83;100854.34;104418;1289;69299;-85
2023/08/22 08:06:34;;;;;;;21.00;15.90;;;;;;;28.13;42.85;100851.21;104406;1289;69259;-85
2023/08/22 08:11:34;;;;;;;16.90;15.20;;;;;;;28.17;42.61;100854.68;104038;1291;73274;-85
2023/08/22 08:13:59;;;;;;;15.80;14.10;;;;;;;28.18;42.63;100847.30;104102;1291;69144;-85
2023/08/22 08:16:25;;;;;;;15.30;13.70;;;;;;;28.19;42.72;100844.06;104134;1291;67816;-86
2023/08/22 08:18:52;;;;;;;16.50;14.60;;;;;;;28.20;42.57;100841.05;104007;1291;70732;-87
2023/08/22 08:21:18;;;;;;;18.80;16.60;;;;;;;28.21;42.64;100843.00;104007;1289;69173;-86
2023/08/22 08:23:44;;;;;;;18.90;16.40;;;;;;;28.21;42.49;100842.61;103973;1290;69262;-86
2023/08/22 08:26:11;;;;;;;18.40;15.70;;;;;;;28.22;42.37;100844.11;104113;1289;69711;-85
2023/08/22 08:28:36;;;;;;;17.70;15.10;;;;;;;28.23;42.35;100844.95;104308;1289;67026;-86
2023/08/22 08:31:02;;;;;;;16.30;14.60;;;;;;;28.24;42.26;100845.45;104138;1292;70275;-85
2023/08/22 08:33:28;;;;;;;17.80;16.10;;;;;;;28.25;42.27;100845.65;103945;1292;73681;-86
2023/08/22 08:35:57;;;;;;;18.30;16.30;;;;;;;28.25;42.11;100845.88;103974;1291;70394;-87
2023/08/22 08:38:23;;;;;;;20.80;18.10;;;;;;;28.27;41.97;100846.36;103919;1291;69218;-87
2023/08/22 08:40:49;;;;;;;21.40;19.10;;;;;;;28.29;41.91;100843.52;104036;1294;69252;-87
2023/08/22 08:43:15;;;;;;;17.00;14.90;;;;;;;28.30;41.81;100836.92;103799;1292;67322;-86
2023/08/22 08:45:40;;;;;;;23.90;21.50;;;;;;;28.31;41.90;100840.20;104012;1291;69250;-87
2023/08/22 08:48:06;;;;;;;22.30;18.80;;;;;;;28.33;41.69;100841.09;104075;1294;69259;-87
2023/08/22 08:50:32;;;;;;;22.20;19.70;;;;;;;28.35;41.53;100836.73;104054;1291;69267;-87
2023/08/22 08:53:01;;;;;;;22.70;20.30;;;;;;;28.36;41.55;100835.88;104225;1291;69294;-87
2023/08/22 08:55:26;;;;;;;25.90;23.10;;;;;;;28.38;41.65;100836.43;105035;1291;73652;-87
2023/08/22 08:57:52;;;;;;;28.10;25.20;;;;;;;28.38;41.60;100834.66;104772;1290;69138;-87
2023/08/22 09:00:18;;;;;;;29.30;26.30;;;;;;;28.39;41.86;100832.98;104010;1291;69215;-87
2023/08/22 09:02:44;;;;;;;33.10;29.70;;;;;;;28.39;41.90;100829.56;103944;1291;69263;-87
2023/08/22 09:05:10;;;;;;;31.70;28.40;;;;;;;28.39;41.78;100826.45;104236;1291;69236;-87
2023/08/22 09:07:37;;;;;;;30.20;27.00;;;;;;;28.38;41.80;100829.38;104422;1292;69121;-87
2023/08/22 09:10:02;;;;;;;35.10;31.50;;;;;;;28.38;41.70;100827.40;104151;1291;69074;-87
2023/08/22 09:12:35;;;;;;;30.10;27.10;;;;;;;28.38;41.53;100823.84;104035;1291;69290;-86
2023/08/22 09:15:01;;;;;;;33.70;30.20;;;;;;;28.38;41.57;100821.09;104184;1290;69071;-88
2023/08/22 09:17:30;;;;;;;32.00;28.70;;;;;;;28.38;41.64;100818.94;103888;1294;69224;-87
2023/08/22 09:19:55;;;;;;;21.20;19.10;;;;;;;28.38;41.70;100817.38;104023;1294;69732;-87
2023/08/22 09:22:30;;;;;;;20.10;18.10;;;;;;;28.38;41.57;100812.52;103943;1291;69213;-87
2023/08/22 09:24:56;;;;;;;23.00;18.60;;;;;;;28.38;41.61;100815.15;104158;1294;69266;-88
2023/08/22 09:27:23;;;;;;;15.60;14.10;;;;;;;28.39;41.62;100810.79;104058;1291;69257;-86
2023/08/22 09:29:58;;;;;;;23.90;21.30;;;;;;;28.39;41.53;100804.30;103772;1292;69040;-92
2023/08/22 09:32:24;;;;;;;19.00;15.80;;;;;;;28.41;41.31;100807.04;103947;1292;72488;-87
2023/08/22 09:34:54;;;;;;;14.00;12.60;;;;;;;28.43;41.34;100807.62;103982;1292;69333;-86
2023/08/22 09:37:37;;;;;;;14.20;10.90;;;;;;;28.44;41.17;100800.08;104033;1290;69209;-87
2023/08/22 09:40:08;;;;;;;14.20;9.60;;;;;;;28.46;41.09;100797.66;104689;1292;67390;-86
2023/08/22 09:42:34;;;;;;;;;;;;;;;28.49;41.01;100798.75;105742;1290;73600;-87
2023/08/22 09:45:02;;;;;;;10.60;9.10;;;;;;;28.51;41.03;100791.92;104309;1292;69356;-87
2023/08/22 09:47:29;;;;;;;11.60;10.00;;;;;;;28.56;40.83;100790.14;104085;1295;69210;-87
2023/08/22 09:49:56;;;;;;;14.60;10.00;;;;;;;28.59;40.62;100793.21;103981;1292;68177;-87
2023/08/22 09:52:24;;;;;;;13.60;10.00;;;;;;;28.63;40.82;100790.73;104143;1291;69134;-87
2023/08/22 09:54:49;;;;;;;12.70;10.50;;;;;;;28.65;40.62;100786.66;104108;1291;73582;-87
2023/08/22 09:57:15;;;;;;;11.40;10.30;;;;;;;28.69;40.41;100789.58;103823;1290;69187;-87
2023/08/22 09:59:59;;;;;;;11.40;10.00;;;;;;;28.71;40.36;100785.64;104000;1291;69198;-91
2023/08/22 10:02:25;;;;;;;15.40;11.40;;;;;;;28.72;40.30;100782.19;103973;1292;69291;-87
2023/08/22 10:04:50;;;;;;;11.20;9.60;;;;;;;28.74;40.32;100778.48;103974;1291;70367;-86
2023/08/22 10:07:16;;;;;;;13.10;9.70;;;;;;;28.79;39.98;100784.31;103846;1291;69319;-86
2023/08/22 10:09:42;;;;;;;11.50;10.10;;;;;;;28.84;39.96;100786.25;104204;1291;69231;-87
2023/08/22 10:12:10;;;;;;;15.80;12.80;;;;;;;28.87;40.04;100784.52;104015;1292;69235;-87
2023/08/22 10:17:16;;;;;;;16.20;14.60;;;;;;;28.86;39.88;100775.62;103989;1290;69162;-86
2023/08/22 10:19:42;;;;;;;15.20;13.50;;;;;;;28.86;39.90;100774.75;104034;1291;69211;-86
2023/08/22 10:22:10;;;;;;;20.10;16.20;;;;;;;28.86;39.80;100778.17;103984;1291;69267;-86
2023/08/22 10:24:35;;;;;;;18.20;15.20;;;;;;;28.89;39.60;100774.45;103899;1292;69251;-86
2023/08/22 10:27:02;;;;;;;17.00;14.60;;;;;;;28.91;39.81;100768.95;104111;1291;69166;-87
2023/08/22 10:32:11;;;;;;;14.50;12.60;;;;;;;28.92;39.60;100767.09;103947;1291;73610;-87
2023/08/22 10:34:42;;;;;;;12.90;10.10;;;;;;;28.93;39.31;100763.34;104165;1293;70037;-87
2023/08/22 10:37:17;;;;;;;11.60;9.20;;;;;;;28.93;39.27;100761.25;103966;1291;69083;-86
2023/08/22 10:39:48;;;;;;;11.70;8.60;;;;;;;28.94;39.28;100759.48;104316;1294;69182;-86
2023/08/22 10:42:13;;;;;;;10.30;8.90;;;;;;;28.98;39.28;100754.38;103986;1292;69236;-86
2023/08/22 10:44:40;;;;;;;10.50;9.10;;;;;;;29.03;39.11;100755.67;104222;1291;69151;-92
2023/08/22 10:47:19;;;;;;;11.00;8.60;;;;;;;29.04;39.01;100756.85;104158;1291;69148;-86
2023/08/22 10:49:49;;;;;;;9.00;8.10;;;;;;;29.05;39.03;100757.09;104157;1291;69221;-87
2023/08/22 10:52:15;;;;;;;12.00;9.20;;;;;;;29.10;38.64;100756.39;104138;1292;69101;-87
2023/08/22 10:55:03;;;;;;;10.60;8.90;;;;;;;29.12;38.62;100750.89;104382;1291;66937;-86
2023/08/22 10:57:30;;;;;;;11.90;8.50;;;;;;;29.13;38.71;100756.70;103898;1291;73629;-86
2023/08/22 10:59:59;;;;;;;10.10;9.10;;;;;;;29.14;38.46;100754.95;104056;1291;69151;-87
2023/08/22 11:05:12;;;;;;;12.00;8.40;;;;;;;29.14;38.73;100745.39;104326;1284;560810;-87
2023/08/22 11:07:41;;;;;;;13.80;8.70;;;;;;;29.15;38.62;100745.91;104418;1288;69126;-87
2023/08/22 11:10:17;;;;;;;11.80;8.80;;;;;;;29.16;38.42;100746.84;104361;1288;74602;-87
2023/08/22 11:12:45;;;;;;;9.90;9.00;;;;;;;29.16;38.35;100739.62;104778;1289;69112;-88
2023/08/22 11:15:14;;;;;;;11.80;9.20;;;;;;;29.16;38.39;100739.61;105475;1288;69093;-88
2023/08/22 11:17:40;;;;;;;15.20;9.60;;;;;;;29.17;38.56;100734.00;104859;1288;69198;-87
2023/08/22 11:20:14;;;;;;;13.10;8.70;;;;;;;29.20;38.52;100730.70;104481;1291;69225;-87
2023/08/22 11:22:40;;;;;;;10.80;8.30;;;;;;;29.24;38.28;100729.17;104870;1289;82189;-87
2023/08/22 11:25:06;;;;;;;9.80;8.30;;;;;;;29.27;38.17;100726.96;104932;1288;69259;-87
2023/08/22 11:27:32;;;;;;;13.10;9.20;;;;;;;29.31;37.94;100725.60;104762;1289;69293;-86
2023/08/22 11:29:58;;;;;;;14.80;9.20;;;;;;;29.35;38.02;100734.34;104448;1289;69201;-87
2023/08/22 11:32:30;;;;;;;14.70;8.50;;;;;;;29.42;37.65;100738.20;104304;1288;69279;-92
2023/08/22 11:34:59;;;;;;;11.40;9.10;;;;;;;29.49;37.44;100737.61;104173;1288;74662;-87